sensor_id;sensor_type;location;lat;lon;timestamp;temperature;humidity
11836;DHT22;5977;51.972;7.640;2023-04-25T00:00:23;17.10;70.30
11836;DHT22;5977;51.972;7.640;2023-04-25T00:02:51;17.20;70.40
11836;DHT22;5977;51.972;7.640;2023-04-25T00:05:19;17.10;70.20
11836;DHT22;5977;51.972;7.640;2023-04-25T00:07:51;17.20;70.30
11836;DHT22;5977;51.972;7.640;2023-04-25T00:10:19;17.20;70.50
11836;DHT22;5977;51.972;7.640;2023-04-25T00:12:47;17.10;70.20
11836;DHT22;5977;51.972;7.640;2023-04-25T00:15:15;17.20;70.70
11836;DHT22;5977;51.972;7.640;2023-04-25T00:17:44;17.10;70.50
11836;DHT22;5977;51.972;7.640;2023-04-25T00:20:12;17.10;70.70
11836;DHT22;5977;51.972;7.640;2023-04-25T00:22:41;17.10;71.00
11836;DHT22;5977;51.972;7.640;2023-04-25T00:25:10;17.10;70.80
11836;DHT22;5977;51.972;7.640;2023-04-25T00:27:38;17.20;70.90
11836;DHT22;5977;51.972;7.640;2023-04-25T00:30:09;17.10;70.80
11836;DHT22;5977;51.972;7.640;2023-04-25T00:32:37;17.10;71.00
11836;DHT22;5977;51.972;7.640;2023-04-25T00:35:05;17.10;71.00
11836;DHT22;5977;51.972;7.640;2023-04-25T00:37:33;17.20;71.20
11836;DHT22;5977;51.972;7.640;2023-04-25T00:40:01;17.20;71.10
11836;DHT22;5977;51.972;7.640;2023-04-25T00:42:32;17.30;70.80
11836;DHT22;5977;51.972;7.640;2023-04-25T00:45:00;17.20;70.60
11836;DHT22;5977;51.972;7.640;2023-04-25T00:47:28;17.30;70.80
11836;DHT22;5977;51.972;7.640;2023-04-25T00:49:56;17.30;71.00
11836;DHT22;5977;51.972;7.640;2023-04-25T00:52:24;17.20;70.70
11836;DHT22;5977;51.972;7.640;2023-04-25T00:54:52;17.20;71.00
11836;DHT22;5977;51.972;7.640;2023-04-25T00:57:20;17.20;71.10
11836;DHT22;5977;51.972;7.640;2023-04-25T00:59:51;17.30;71.10
11836;DHT22;5977;51.972;7.640;2023-04-25T01:02:19;17.20;71.00
11836;DHT22;5977;51.972;7.640;2023-04-25T01:04:48;17.30;71.20
11836;DHT22;5977;51.972;7.640;2023-04-25T01:07:16;17.30;71.00
11836;DHT22;5977;51.972;7.640;2023-04-25T01:09:44;17.30;70.90
11836;DHT22;5977;51.972;7.640;2023-04-25T01:12:12;17.30;71.20
11836;DHT22;5977;51.972;7.640;2023-04-25T01:14:41;17.30;71.60
11836;DHT22;5977;51.972;7.640;2023-04-25T01:17:10;17.20;70.90
11836;DHT22;5977;51.972;7.640;2023-04-25T01:19:39;17.30;71.60
11836;DHT22;5977;51.972;7.640;2023-04-25T01:22:08;17.20;71.20
11836;DHT22;5977;51.972;7.640;2023-04-25T01:24:37;17.30;71.40
11836;DHT22;5977;51.972;7.640;2023-04-25T01:27:05;17.40;71.20
11836;DHT22;5977;51.972;7.640;2023-04-25T01:29:35;17.40;71.20
11836;DHT22;5977;51.972;7.640;2023-04-25T01:32:04;17.40;71.00
11836;DHT22;5977;51.972;7.640;2023-04-25T01:34:32;17.40;71.20
11836;DHT22;5977;51.972;7.640;2023-04-25T01:37:00;17.40;71.10
11836;DHT22;5977;51.972;7.640;2023-04-25T01:39:30;17.30;70.90
11836;DHT22;5977;51.972;7.640;2023-04-25T01:41:59;17.20;71.20
11836;DHT22;5977;51.972;7.640;2023-04-25T01:44:27;17.30;71.30
11836;DHT22;5977;51.972;7.640;2023-04-25T01:46:55;17.30;71.40
11836;DHT22;5977;51.972;7.640;2023-04-25T01:49:23;17.30;71.20
11836;DHT22;5977;51.972;7.640;2023-04-25T01:51:51;17.20;71.30
11836;DHT22;5977;51.972;7.640;2023-04-25T01:54:19;17.20;71.60
11836;DHT22;5977;51.972;7.640;2023-04-25T01:56:51;17.10;71.40
11836;DHT22;5977;51.972;7.640;2023-04-25T01:59:21;17.30;71.80
11836;DHT22;5977;51.972;7.640;2023-04-25T02:02:16;17.20;70.60
11836;DHT22;5977;51.972;7.640;2023-04-25T02:04:44;17.20;71.50
11836;DHT22;5977;51.972;7.640;2023-04-25T02:07:12;17.10;71.20
11836;DHT22;5977;51.972;7.640;2023-04-25T02:09:52;17.10;71.20
11836;DHT22;5977;51.972;7.640;2023-04-25T02:12:23;17.00;71.00
11836;DHT22;5977;51.972;7.640;2023-04-25T02:15:05;17.20;71.90
11836;DHT22;5977;51.972;7.640;2023-04-25T02:17:38;17.10;71.20
11836;DHT22;5977;51.972;7.640;2023-04-25T02:20:06;17.10;71.00
11836;DHT22;5977;51.972;7.640;2023-04-25T02:22:34;17.10;71.80
11836;DHT22;5977;51.972;7.640;2023-04-25T02:25:06;17.20;71.70
11836;DHT22;5977;51.972;7.640;2023-04-25T02:27:35;17.30;71.20
11836;DHT22;5977;51.972;7.640;2023-04-25T02:30:04;17.30;71.70
11836;DHT22;5977;51.972;7.640;2023-04-25T02:32:33;17.20;70.80
11836;DHT22;5977;51.972;7.640;2023-04-25T02:35:02;17.30;71.10
11836;DHT22;5977;51.972;7.640;2023-04-25T02:37:30;17.30;70.60
11836;DHT22;5977;51.972;7.640;2023-04-25T02:39:58;17.10;70.90
11836;DHT22;5977;51.972;7.640;2023-04-25T02:42:26;17.10;71.50
11836;DHT22;5977;51.972;7.640;2023-04-25T02:44:58;17.10;71.50
11836;DHT22;5977;51.972;7.640;2023-04-25T02:47:26;17.00;71.20
11836;DHT22;5977;51.972;7.640;2023-04-25T02:49:54;17.00;71.60
11836;DHT22;5977;51.972;7.640;2023-04-25T02:52:22;17.00;71.60
11836;DHT22;5977;51.972;7.640;2023-04-25T02:54:57;17.20;71.80
11836;DHT22;5977;51.972;7.640;2023-04-25T02:57:26;17.10;71.40
11836;DHT22;5977;51.972;7.640;2023-04-25T02:59:55;17.10;71.20
11836;DHT22;5977;51.972;7.640;2023-04-25T03:02:24;17.20;71.60
11836;DHT22;5977;51.972;7.640;2023-04-25T03:04:52;17.20;71.30
11836;DHT22;5977;51.972;7.640;2023-04-25T03:07:20;17.20;71.20
11836;DHT22;5977;51.972;7.640;2023-04-25T03:09:48;17.40;71.60
11836;DHT22;5977;51.972;7.640;2023-04-25T03:12:16;17.40;70.80
11836;DHT22;5977;51.972;7.640;2023-04-25T03:14:45;17.40;71.00
11836;DHT22;5977;51.972;7.640;2023-04-25T03:17:14;17.40;70.80
11836;DHT22;5977;51.972;7.640;2023-04-25T03:19:43;17.40;70.50
11836;DHT22;5977;51.972;7.640;2023-04-25T03:22:11;17.30;70.70
11836;DHT22;5977;51.972;7.640;2023-04-25T03:24:39;17.30;70.60
11836;DHT22;5977;51.972;7.640;2023-04-25T03:27:07;17.40;70.70
11836;DHT22;5977;51.972;7.640;2023-04-25T03:29:35;17.30;69.80
11836;DHT22;5977;51.972;7.640;2023-04-25T03:32:04;17.30;70.20
11836;DHT22;5977;51.972;7.640;2023-04-25T03:34:32;17.30;70.40
11836;DHT22;5977;51.972;7.640;2023-04-25T03:37:01;17.30;69.60
11836;DHT22;5977;51.972;7.640;2023-04-25T03:39:33;17.40;69.70
11836;DHT22;5977;51.972;7.640;2023-04-25T03:42:01;17.40;69.20
11836;DHT22;5977;51.972;7.640;2023-04-25T03:44:30;17.40;68.90
11836;DHT22;5977;51.972;7.640;2023-04-25T03:47:00;17.40;68.80
11836;DHT22;5977;51.972;7.640;2023-04-25T03:49:29;17.40;68.40
11836;DHT22;5977;51.972;7.640;2023-04-25T03:52:00;17.30;68.40
11836;DHT22;5977;51.972;7.640;2023-04-25T03:54:34;17.30;67.80
11836;DHT22;5977;51.972;7.640;2023-04-25T03:57:08;17.30;68.10
11836;DHT22;5977;51.972;7.640;2023-04-25T03:59:38;17.30;68.00
11836;DHT22;5977;51.972;7.640;2023-04-25T04:02:09;17.40;68.20
11836;DHT22;5977;51.972;7.640;2023-04-25T04:04:38;17.40;67.60
11836;DHT22;5977;51.972;7.640;2023-04-25T04:07:06;17.40;67.60
11836;DHT22;5977;51.972;7.640;2023-04-25T04:09:37;17.40;67.60
11836;DHT22;5977;51.972;7.640;2023-04-25T04:12:13;17.40;67.60
11836;DHT22;5977;51.972;7.640;2023-04-25T04:14:41;17.30;67.30
11836;DHT22;5977;51.972;7.640;2023-04-25T04:17:09;17.30;67.30
11836;DHT22;5977;51.972;7.640;2023-04-25T04:19:37;17.20;67.10
11836;DHT22;5977;51.972;7.640;2023-04-25T04:22:11;17.30;67.70
11836;DHT22;5977;51.972;7.640;2023-04-25T04:24:41;17.30;67.00
11836;DHT22;5977;51.972;7.640;2023-04-25T04:27:11;17.30;66.90
11836;DHT22;5977;51.972;7.640;2023-04-25T04:29:46;17.40;67.60
11836;DHT22;5977;51.972;7.640;2023-04-25T04:32:18;17.40;66.90
11836;DHT22;5977;51.972;7.640;2023-04-25T04:34:46;17.40;66.80
11836;DHT22;5977;51.972;7.640;2023-04-25T04:37:16;17.30;66.40
11836;DHT22;5977;51.972;7.640;2023-04-25T04:39:46;17.40;66.70
11836;DHT22;5977;51.972;7.640;2023-04-25T04:42:28;17.40;66.70
11836;DHT22;5977;51.972;7.640;2023-04-25T04:45:22;17.50;66.40
11836;DHT22;5977;51.972;7.640;2023-04-25T04:48:08;17.40;66.10
11836;DHT22;5977;51.972;7.640;2023-04-25T04:50:53;17.50;65.90
11836;DHT22;5977;51.972;7.640;2023-04-25T04:53:49;17.50;65.90
11836;DHT22;5977;51.972;7.640;2023-04-25T04:56:39;17.40;65.80
11836;DHT22;5977;51.972;7.640;2023-04-25T04:59:21;17.40;66.10
11836;DHT22;5977;51.972;7.640;2023-04-25T05:02:08;17.50;65.20
11836;DHT22;5977;51.972;7.640;2023-04-25T05:04:56;17.40;65.40
11836;DHT22;5977;51.972;7.640;2023-04-25T05:07:42;17.40;65.30
11836;DHT22;5977;51.972;7.640;2023-04-25T05:10:33;17.40;65.60
11836;DHT22;5977;51.972;7.640;2023-04-25T05:13:19;17.40;65.30
11836;DHT22;5977;51.972;7.640;2023-04-25T05:16:03;17.40;65.20
11836;DHT22;5977;51.972;7.640;2023-04-25T05:18:46;17.30;65.20
11836;DHT22;5977;51.972;7.640;2023-04-25T05:21:29;17.30;65.20
11836;DHT22;5977;51.972;7.640;2023-04-25T05:24:24;17.40;65.20
11836;DHT22;5977;51.972;7.640;2023-04-25T05:27:24;17.50;65.50
11836;DHT22;5977;51.972;7.640;2023-04-25T05:30:07;17.40;65.00
11836;DHT22;5977;51.972;7.640;2023-04-25T05:32:49;17.40;64.80
11836;DHT22;5977;51.972;7.640;2023-04-25T05:35:17;17.40;64.80
11836;DHT22;5977;51.972;7.640;2023-04-25T05:37:47;17.40;64.70
11836;DHT22;5977;51.972;7.640;2023-04-25T05:40:16;17.40;65.00
11836;DHT22;5977;51.972;7.640;2023-04-25T05:42:43;17.40;64.50
11836;DHT22;5977;51.972;7.640;2023-04-25T05:45:31;17.40;64.60
11836;DHT22;5977;51.972;7.640;2023-04-25T05:48:26;17.40;64.10
11836;DHT22;5977;51.972;7.640;2023-04-25T05:51:04;17.40;64.00
11836;DHT22;5977;51.972;7.640;2023-04-25T05:53:52;17.40;64.40
11836;DHT22;5977;51.972;7.640;2023-04-25T05:56:20;17.40;63.70
11836;DHT22;5977;51.972;7.640;2023-04-25T05:58:51;17.40;63.60
11836;DHT22;5977;51.972;7.640;2023-04-25T06:01:22;17.30;63.80
11836;DHT22;5977;51.972;7.640;2023-04-25T06:03:50;17.20;63.10
11836;DHT22;5977;51.972;7.640;2023-04-25T06:06:19;16.80;64.30
11836;DHT22;5977;51.972;7.640;2023-04-25T06:08:47;16.60;63.30
11836;DHT22;5977;51.972;7.640;2023-04-25T06:11:15;16.60;63.10
11836;DHT22;5977;51.972;7.640;2023-04-25T06:13:43;16.50;63.50
11836;DHT22;5977;51.972;7.640;2023-04-25T06:16:12;16.50;64.20
11836;DHT22;5977;51.972;7.640;2023-04-25T06:18:41;16.50;63.70
11836;DHT22;5977;51.972;7.640;2023-04-25T06:21:09;16.40;64.30
11836;DHT22;5977;51.972;7.640;2023-04-25T06:23:36;16.20;62.80
11836;DHT22;5977;51.972;7.640;2023-04-25T06:26:07;16.00;63.20
11836;DHT22;5977;51.972;7.640;2023-04-25T06:28:37;16.20;64.40
11836;DHT22;5977;51.972;7.640;2023-04-25T06:31:05;16.20;63.40
11836;DHT22;5977;51.972;7.640;2023-04-25T06:33:33;16.20;63.20
11836;DHT22;5977;51.972;7.640;2023-04-25T06:36:04;16.00;62.80
11836;DHT22;5977;51.972;7.640;2023-04-25T06:38:32;16.20;63.60
11836;DHT22;5977;51.972;7.640;2023-04-25T06:41:01;16.10;63.50
11836;DHT22;5977;51.972;7.640;2023-04-25T06:43:32;16.20;63.40
11836;DHT22;5977;51.972;7.640;2023-04-25T06:46:03;16.10;62.70
11836;DHT22;5977;51.972;7.640;2023-04-25T06:48:34;16.10;62.80
11836;DHT22;5977;51.972;7.640;2023-04-25T06:51:06;16.20;62.00
11836;DHT22;5977;51.972;7.640;2023-04-25T06:53:35;16.20;63.10
11836;DHT22;5977;51.972;7.640;2023-04-25T06:56:06;16.40;62.70
11836;DHT22;5977;51.972;7.640;2023-04-25T06:58:45;16.40;61.50
11836;DHT22;5977;51.972;7.640;2023-04-25T07:01:21;16.40;62.70
11836;DHT22;5977;51.972;7.640;2023-04-25T07:03:49;16.60;64.00
11836;DHT22;5977;51.972;7.640;2023-04-25T07:06:19;16.10;61.90
11836;DHT22;5977;51.972;7.640;2023-04-25T07:08:47;16.20;63.40
11836;DHT22;5977;51.972;7.640;2023-04-25T07:11:15;16.50;64.50
11836;DHT22;5977;51.972;7.640;2023-04-25T07:13:43;16.50;63.10
11836;DHT22;5977;51.972;7.640;2023-04-25T07:16:11;16.30;61.90
11836;DHT22;5977;51.972;7.640;2023-04-25T07:18:40;16.20;63.10
11836;DHT22;5977;51.972;7.640;2023-04-25T07:21:08;16.40;64.70
11836;DHT22;5977;51.972;7.640;2023-04-25T07:23:38;16.30;64.70
11836;DHT22;5977;51.972;7.640;2023-04-25T07:26:14;16.40;62.90
11836;DHT22;5977;51.972;7.640;2023-04-25T07:29:02;16.50;65.00
11836;DHT22;5977;51.972;7.640;2023-04-25T07:31:29;16.60;63.10
11836;DHT22;5977;51.972;7.640;2023-04-25T07:33:57;16.50;62.70
11836;DHT22;5977;51.972;7.640;2023-04-25T07:36:27;16.90;64.40
11836;DHT22;5977;51.972;7.640;2023-04-25T07:38:57;16.90;64.50
11836;DHT22;5977;51.972;7.640;2023-04-25T07:41:25;17.20;65.70
11836;DHT22;5977;51.972;7.640;2023-04-25T07:43:52;17.70;64.40
11836;DHT22;5977;51.972;7.640;2023-04-25T07:46:20;18.50;62.50
11836;DHT22;5977;51.972;7.640;2023-04-25T07:48:48;19.20;57.80
11836;DHT22;5977;51.972;7.640;2023-04-25T07:51:17;19.20;55.50
11836;DHT22;5977;51.972;7.640;2023-04-25T07:53:47;19.20;54.80
11836;DHT22;5977;51.972;7.640;2023-04-25T07:56:18;19.10;55.00
11836;DHT22;5977;51.972;7.640;2023-04-25T07:58:47;19.20;54.80
11836;DHT22;5977;51.972;7.640;2023-04-25T08:01:17;18.70;55.10
11836;DHT22;5977;51.972;7.640;2023-04-25T08:03:53;18.10;57.20
11836;DHT22;5977;51.972;7.640;2023-04-25T08:06:26;17.80;58.90
11836;DHT22;5977;51.972;7.640;2023-04-25T08:09:06;17.70;59.70
11836;DHT22;5977;51.972;7.640;2023-04-25T08:11:39;17.50;59.20
11836;DHT22;5977;51.972;7.640;2023-04-25T08:14:09;17.50;57.90
11836;DHT22;5977;51.972;7.640;2023-04-25T08:16:38;18.90;56.40
11836;DHT22;5977;51.972;7.640;2023-04-25T08:19:06;18.50;55.80
11836;DHT22;5977;51.972;7.640;2023-04-25T08:21:34;18.00;57.60
11836;DHT22;5977;51.972;7.640;2023-04-25T08:24:05;17.50;59.40
11836;DHT22;5977;51.972;7.640;2023-04-25T08:26:38;17.20;60.10
11836;DHT22;5977;51.972;7.640;2023-04-25T08:29:09;18.00;59.60
11836;DHT22;5977;51.972;7.640;2023-04-25T08:31:40;18.10;58.70
11836;DHT22;5977;51.972;7.640;2023-04-25T08:34:08;17.50;57.40
11836;DHT22;5977;51.972;7.640;2023-04-25T08:36:44;17.30;59.70
11836;DHT22;5977;51.972;7.640;2023-04-25T08:39:32;17.80;61.00
11836;DHT22;5977;51.972;7.640;2023-04-25T08:42:27;18.90;56.20
11836;DHT22;5977;51.972;7.640;2023-04-25T08:44:55;18.70;55.00
11836;DHT22;5977;51.972;7.640;2023-04-25T08:47:29;19.20;52.40
11836;DHT22;5977;51.972;7.640;2023-04-25T08:49:58;19.80;50.90
11836;DHT22;5977;51.972;7.640;2023-04-25T08:52:30;20.30;49.00
11836;DHT22;5977;51.972;7.640;2023-04-25T08:55:01;19.90;48.40
11836;DHT22;5977;51.972;7.640;2023-04-25T08:57:31;19.40;50.00
11836;DHT22;5977;51.972;7.640;2023-04-25T09:00:02;19.20;52.80
11836;DHT22;5977;51.972;7.640;2023-04-25T09:02:36;19.10;53.90
11836;DHT22;5977;51.972;7.640;2023-04-25T09:05:08;18.80;53.30
11836;DHT22;5977;51.972;7.640;2023-04-25T09:07:36;18.80;53.30
11836;DHT22;5977;51.972;7.640;2023-04-25T09:10:05;18.50;53.30
11836;DHT22;5977;51.972;7.640;2023-04-25T09:12:37;18.40;54.60
11836;DHT22;5977;51.972;7.640;2023-04-25T09:15:09;18.20;55.20
11836;DHT22;5977;51.972;7.640;2023-04-25T09:18:00;18.10;56.00
11836;DHT22;5977;51.972;7.640;2023-04-25T09:20:41;18.00;56.50
11836;DHT22;5977;51.972;7.640;2023-04-25T09:23:27;17.80;57.50
11836;DHT22;5977;51.972;7.640;2023-04-25T09:25:55;17.60;58.20
11836;DHT22;5977;51.972;7.640;2023-04-25T09:28:26;17.30;58.00
11836;DHT22;5977;51.972;7.640;2023-04-25T09:30:57;17.40;59.50
11836;DHT22;5977;51.972;7.640;2023-04-25T09:33:36;17.40;58.90
11836;DHT22;5977;51.972;7.640;2023-04-25T09:36:07;17.50;57.60
11836;DHT22;5977;51.972;7.640;2023-04-25T09:38:55;18.20;56.50
11836;DHT22;5977;51.972;7.640;2023-04-25T09:41:27;18.90;54.20
11836;DHT22;5977;51.972;7.640;2023-04-25T09:44:01;18.90;52.50
11836;DHT22;5977;51.972;7.640;2023-04-25T09:46:36;18.70;53.30
11836;DHT22;5977;51.972;7.640;2023-04-25T09:49:08;18.60;53.30
11836;DHT22;5977;51.972;7.640;2023-04-25T09:51:59;18.40;54.60
11836;DHT22;5977;51.972;7.640;2023-04-25T09:54:36;18.10;55.30
11836;DHT22;5977;51.972;7.640;2023-04-25T09:57:11;17.90;55.00
11836;DHT22;5977;51.972;7.640;2023-04-25T09:59:45;17.90;55.70
11836;DHT22;5977;51.972;7.640;2023-04-25T10:02:15;17.70;56.20
11836;DHT22;5977;51.972;7.640;2023-04-25T10:04:47;17.50;56.10
11836;DHT22;5977;51.972;7.640;2023-04-25T10:07:22;17.70;56.10
11836;DHT22;5977;51.972;7.640;2023-04-25T10:09:55;17.80;54.50
11836;DHT22;5977;51.972;7.640;2023-04-25T10:12:26;17.90;54.80
11836;DHT22;5977;51.972;7.640;2023-04-25T10:14:55;17.90;54.60
11836;DHT22;5977;51.972;7.640;2023-04-25T10:17:24;18.00;55.40
11836;DHT22;5977;51.972;7.640;2023-04-25T10:19:54;17.90;54.80
11836;DHT22;5977;51.972;7.640;2023-04-25T10:22:28;17.90;54.70
11836;DHT22;5977;51.972;7.640;2023-04-25T10:24:58;17.90;54.40
11836;DHT22;5977;51.972;7.640;2023-04-25T10:27:27;18.00;54.70
11836;DHT22;5977;51.972;7.640;2023-04-25T10:30:04;18.30;53.10
11836;DHT22;5977;51.972;7.640;2023-04-25T10:32:32;18.20;53.10
11836;DHT22;5977;51.972;7.640;2023-04-25T10:35:10;18.10;54.30
11836;DHT22;5977;51.972;7.640;2023-04-25T10:37:41;18.30;54.40
11836;DHT22;5977;51.972;7.640;2023-04-25T10:40:23;18.40;54.20
11836;DHT22;5977;51.972;7.640;2023-04-25T10:42:52;18.60;52.10
11836;DHT22;5977;51.972;7.640;2023-04-25T10:45:21;18.70;52.30
11836;DHT22;5977;51.972;7.640;2023-04-25T10:47:49;18.20;53.30
11836;DHT22;5977;51.972;7.640;2023-04-25T10:50:17;17.80;54.10
11836;DHT22;5977;51.972;7.640;2023-04-25T10:52:44;17.70;56.30
11836;DHT22;5977;51.972;7.640;2023-04-25T10:55:12;17.50;55.90
11836;DHT22;5977;51.972;7.640;2023-04-25T10:57:41;17.10;57.10
11836;DHT22;5977;51.972;7.640;2023-04-25T11:00:14;17.10;58.60
11836;DHT22;5977;51.972;7.640;2023-04-25T11:02:45;17.00;57.80
11836;DHT22;5977;51.972;7.640;2023-04-25T11:05:27;16.80;58.00
11836;DHT22;5977;51.972;7.640;2023-04-25T11:07:59;16.80;58.90
11836;DHT22;5977;51.972;7.640;2023-04-25T11:10:34;16.80;58.80
11836;DHT22;5977;51.972;7.640;2023-04-25T11:13:04;16.50;59.40
11836;DHT22;5977;51.972;7.640;2023-04-25T11:15:32;16.40;59.60
11836;DHT22;5977;51.972;7.640;2023-04-25T11:18:01;16.30;57.00
11836;DHT22;5977;51.972;7.640;2023-04-25T11:20:29;16.30;60.60
11836;DHT22;5977;51.972;7.640;2023-04-25T11:22:57;16.50;60.70
11836;DHT22;5977;51.972;7.640;2023-04-25T11:25:26;16.20;58.10
11836;DHT22;5977;51.972;7.640;2023-04-25T11:27:55;16.20;58.50
11836;DHT22;5977;51.972;7.640;2023-04-25T11:30:25;16.40;58.30
11836;DHT22;5977;51.972;7.640;2023-04-25T11:32:53;16.40;57.60
11836;DHT22;5977;51.972;7.640;2023-04-25T11:35:22;16.40;59.00
11836;DHT22;5977;51.972;7.640;2023-04-25T11:37:52;16.40;58.80
11836;DHT22;5977;51.972;7.640;2023-04-25T11:40:20;16.60;58.40
11836;DHT22;5977;51.972;7.640;2023-04-25T11:42:48;16.90;58.60
11836;DHT22;5977;51.972;7.640;2023-04-25T11:45:18;16.80;57.90
11836;DHT22;5977;51.972;7.640;2023-04-25T11:47:46;17.00;58.90
11836;DHT22;5977;51.972;7.640;2023-04-25T11:50:14;16.90;57.50
11836;DHT22;5977;51.972;7.640;2023-04-25T11:52:45;16.90;58.50
11836;DHT22;5977;51.972;7.640;2023-04-25T11:55:13;17.00;57.20
11836;DHT22;5977;51.972;7.640;2023-04-25T11:57:43;17.00;56.70
11836;DHT22;5977;51.972;7.640;2023-04-25T12:00:12;17.10;56.80
11836;DHT22;5977;51.972;7.640;2023-04-25T12:02:46;17.20;55.70
11836;DHT22;5977;51.972;7.640;2023-04-25T12:05:15;17.20;57.20
11836;DHT22;5977;51.972;7.640;2023-04-25T12:08:09;17.20;55.50
11836;DHT22;5977;51.972;7.640;2023-04-25T12:10:39;17.40;55.90
11836;DHT22;5977;51.972;7.640;2023-04-25T12:13:21;17.30;56.00
11836;DHT22;5977;51.972;7.640;2023-04-25T12:15:49;17.20;55.50
11836;DHT22;5977;51.972;7.640;2023-04-25T12:18:19;17.30;54.90
11836;DHT22;5977;51.972;7.640;2023-04-25T12:20:48;17.30;55.40
11836;DHT22;5977;51.972;7.640;2023-04-25T12:23:17;17.10;54.00
11836;DHT22;5977;51.972;7.640;2023-04-25T12:25:52;17.20;55.20
11836;DHT22;5977;51.972;7.640;2023-04-25T12:28:22;17.30;56.10
11836;DHT22;5977;51.972;7.640;2023-04-25T12:30:57;17.20;55.60
11836;DHT22;5977;51.972;7.640;2023-04-25T12:33:27;17.30;56.10
11836;DHT22;5977;51.972;7.640;2023-04-25T12:35:55;17.50;57.50
11836;DHT22;5977;51.972;7.640;2023-04-25T12:38:27;17.60;56.30
11836;DHT22;5977;51.972;7.640;2023-04-25T12:40:56;17.70;56.30
11836;DHT22;5977;51.972;7.640;2023-04-25T12:43:24;17.70;56.30
11836;DHT22;5977;51.972;7.640;2023-04-25T12:45:53;17.60;55.40
11836;DHT22;5977;51.972;7.640;2023-04-25T12:48:22;17.60;55.10
11836;DHT22;5977;51.972;7.640;2023-04-25T12:50:50;17.70;55.40
11836;DHT22;5977;51.972;7.640;2023-04-25T12:53:20;17.60;55.70
11836;DHT22;5977;51.972;7.640;2023-04-25T12:55:49;17.60;56.40
11836;DHT22;5977;51.972;7.640;2023-04-25T12:58:18;17.40;56.10
11836;DHT22;5977;51.972;7.640;2023-04-25T13:00:46;17.30;57.50
11836;DHT22;5977;51.972;7.640;2023-04-25T13:03:15;17.50;57.70
11836;DHT22;5977;51.972;7.640;2023-04-25T13:05:43;17.20;56.50
11836;DHT22;5977;51.972;7.640;2023-04-25T13:08:11;16.80;57.30
11836;DHT22;5977;51.972;7.640;2023-04-25T13:10:39;17.20;59.00
11836;DHT22;5977;51.972;7.640;2023-04-25T13:13:08;17.20;58.90
11836;DHT22;5977;51.972;7.640;2023-04-25T13:15:36;17.20;58.50
11836;DHT22;5977;51.972;7.640;2023-04-25T13:18:04;17.30;58.90
11836;DHT22;5977;51.972;7.640;2023-04-25T13:20:32;17.30;57.50
11836;DHT22;5977;51.972;7.640;2023-04-25T13:23:00;17.40;58.30
11836;DHT22;5977;51.972;7.640;2023-04-25T13:25:28;17.30;57.40
11836;DHT22;5977;51.972;7.640;2023-04-25T13:27:56;17.40;58.20
11836;DHT22;5977;51.972;7.640;2023-04-25T13:30:26;17.30;57.30
11836;DHT22;5977;51.972;7.640;2023-04-25T13:32:54;17.10;58.00
11836;DHT22;5977;51.972;7.640;2023-04-25T13:35:23;17.00;58.60
11836;DHT22;5977;51.972;7.640;2023-04-25T13:37:51;16.70;60.50
11836;DHT22;5977;51.972;7.640;2023-04-25T13:40:19;16.60;59.30
11836;DHT22;5977;51.972;7.640;2023-04-25T13:42:50;16.30;60.10
11836;DHT22;5977;51.972;7.640;2023-04-25T13:45:18;16.70;61.60
11836;DHT22;5977;51.972;7.640;2023-04-25T13:47:47;17.00;60.80
11836;DHT22;5977;51.972;7.640;2023-04-25T13:50:16;16.60;60.10
11836;DHT22;5977;51.972;7.640;2023-04-25T13:52:44;16.70;61.10
11836;DHT22;5977;51.972;7.640;2023-04-25T13:55:12;16.60;60.40
11836;DHT22;5977;51.972;7.640;2023-04-25T13:57:40;16.40;60.90
11836;DHT22;5977;51.972;7.640;2023-04-25T14:00:08;16.90;60.50
11836;DHT22;5977;51.972;7.640;2023-04-25T14:02:37;16.90;60.00
11836;DHT22;5977;51.972;7.640;2023-04-25T14:05:07;16.80;59.00
11836;DHT22;5977;51.972;7.640;2023-04-25T14:07:36;16.60;59.80
11836;DHT22;5977;51.972;7.640;2023-04-25T14:10:05;16.80;58.80
11836;DHT22;5977;51.972;7.640;2023-04-25T14:12:33;16.40;59.30
11836;DHT22;5977;51.972;7.640;2023-04-25T14:15:01;16.50;59.70
11836;DHT22;5977;51.972;7.640;2023-04-25T14:17:29;16.80;61.10
11836;DHT22;5977;51.972;7.640;2023-04-25T14:19:57;16.50;59.20
11836;DHT22;5977;51.972;7.640;2023-04-25T14:22:26;16.70;59.80
11836;DHT22;5977;51.972;7.640;2023-04-25T14:24:54;16.80;59.10
11836;DHT22;5977;51.972;7.640;2023-04-25T14:27:22;16.90;60.30
11836;DHT22;5977;51.972;7.640;2023-04-25T14:29:51;16.90;59.00
11836;DHT22;5977;51.972;7.640;2023-04-25T14:32:19;16.90;59.40
11836;DHT22;5977;51.972;7.640;2023-04-25T14:34:47;17.00;58.50
11836;DHT22;5977;51.972;7.640;2023-04-25T14:37:15;16.90;58.10
11836;DHT22;5977;51.972;7.640;2023-04-25T14:39:44;17.00;59.20
11836;DHT22;5977;51.972;7.640;2023-04-25T14:42:12;17.20;58.20
11836;DHT22;5977;51.972;7.640;2023-04-25T14:44:40;17.00;59.10
11836;DHT22;5977;51.972;7.640;2023-04-25T14:47:08;17.00;59.30
11836;DHT22;5977;51.972;7.640;2023-04-25T14:49:35;17.00;58.60
11836;DHT22;5977;51.972;7.640;2023-04-25T14:52:03;17.30;59.60
11836;DHT22;5977;51.972;7.640;2023-04-25T14:54:31;17.10;59.00
11836;DHT22;5977;51.972;7.640;2023-04-25T14:57:00;17.30;58.90
11836;DHT22;5977;51.972;7.640;2023-04-25T14:59:28;17.30;58.20
11836;DHT22;5977;51.972;7.640;2023-04-25T15:01:56;17.10;58.20
11836;DHT22;5977;51.972;7.640;2023-04-25T15:04:25;16.80;58.30
11836;DHT22;5977;51.972;7.640;2023-04-25T15:06:54;16.70;59.20
11836;DHT22;5977;51.972;7.640;2023-04-25T15:09:22;16.70;59.60
11836;DHT22;5977;51.972;7.640;2023-04-25T15:11:51;16.90;59.80
11836;DHT22;5977;51.972;7.640;2023-04-25T15:14:20;16.80;58.60
11836;DHT22;5977;51.972;7.640;2023-04-25T15:16:48;16.90;59.50
11836;DHT22;5977;51.972;7.640;2023-04-25T15:19:15;16.80;57.80
11836;DHT22;5977;51.972;7.640;2023-04-25T15:21:43;16.90;59.20
11836;DHT22;5977;51.972;7.640;2023-04-25T15:24:11;17.00;59.10
11836;DHT22;5977;51.972;7.640;2023-04-25T15:26:41;17.00;60.20
11836;DHT22;5977;51.972;7.640;2023-04-25T15:29:08;16.90;59.00
11836;DHT22;5977;51.972;7.640;2023-04-25T15:31:38;16.70;57.20
11836;DHT22;5977;51.972;7.640;2023-04-25T15:34:06;16.30;58.60
11836;DHT22;5977;51.972;7.640;2023-04-25T15:36:34;16.80;60.40
11836;DHT22;5977;51.972;7.640;2023-04-25T15:39:02;16.60;58.20
11836;DHT22;5977;51.972;7.640;2023-04-25T15:41:30;16.70;60.60
11836;DHT22;5977;51.972;7.640;2023-04-25T15:43:59;16.90;59.30
11836;DHT22;5977;51.972;7.640;2023-04-25T15:46:27;16.90;58.80
11836;DHT22;5977;51.972;7.640;2023-04-25T15:48:58;16.90;58.80
11836;DHT22;5977;51.972;7.640;2023-04-25T15:51:26;17.00;60.00
11836;DHT22;5977;51.972;7.640;2023-04-25T15:53:54;17.00;58.80
11836;DHT22;5977;51.972;7.640;2023-04-25T15:56:21;17.00;59.10
11836;DHT22;5977;51.972;7.640;2023-04-25T15:58:50;17.20;59.90
11836;DHT22;5977;51.972;7.640;2023-04-25T16:01:18;17.00;56.50
11836;DHT22;5977;51.972;7.640;2023-04-25T16:03:49;16.90;58.70
11836;DHT22;5977;51.972;7.640;2023-04-25T16:06:20;17.00;58.60
11836;DHT22;5977;51.972;7.640;2023-04-25T16:08:48;17.10;58.00